sensor_id;sensor_type;location;lat;lon;timestamp;P1;durP1;ratioP1;P2;durP2;ratioP2
11691;SDS011;33659;42.672;23.354;2022-12-07T00:02:14;21.90;;;11.17;;
11691;SDS011;33659;42.672;23.354;2022-12-07T00:04:41;19.13;;;9.63;;
11691;SDS011;33659;42.672;23.354;2022-12-07T00:07:08;19.87;;;11.57;;
11691;SDS011;33659;42.672;23.354;2022-12-07T00:09:34;21.30;;;10.93;;
11691;SDS011;33659;42.672;23.354;2022-12-07T00:12:01;20.83;;;10.67;;
11691;SDS011;33659;42.672;23.354;2022-12-07T00:14:32;21.27;;;11.33;;
11691;SDS011;33659;42.672;23.354;2022-12-07T00:16:59;23.00;;;11.17;;
11691;SDS011;33659;42.672;23.354;2022-12-07T00:19:26;19.70;;;10.20;;
11691;SDS011;33659;42.672;23.354;2022-12-07T00:21:52;20.93;;;11.07;;
11691;SDS011;33659;42.672;23.354;2022-12-07T00:24:19;22.43;;;10.90;;
11691;SDS011;33659;42.672;23.354;2022-12-07T00:26:46;21.80;;;11.03;;
11691;SDS011;33659;42.672;23.354;2022-12-07T00:29:15;16.73;;;10.20;;
11691;SDS011;33659;42.672;23.354;2022-12-07T00:31:44;19.10;;;11.17;;
11691;SDS011;33659;42.672;23.354;2022-12-07T00:34:12;27.70;;;13.10;;
11691;SDS011;33659;42.672;23.354;2022-12-07T00:36:40;23.17;;;12.27;;
11691;SDS011;33659;42.672;23.354;2022-12-07T00:39:07;22.77;;;12.60;;
11691;SDS011;33659;42.672;23.354;2022-12-07T00:41:34;23.03;;;12.57;;
11691;SDS011;33659;42.672;23.354;2022-12-07T00:44:01;20.07;;;10.93;;
11691;SDS011;33659;42.672;23.354;2022-12-07T00:46:28;21.70;;;10.80;;
11691;SDS011;33659;42.672;23.354;2022-12-07T00:48:57;19.47;;;10.57;;
11691;SDS011;33659;42.672;23.354;2022-12-07T00:51:24;18.27;;;10.90;;
11691;SDS011;33659;42.672;23.354;2022-12-07T00:53:51;20.73;;;11.43;;
11691;SDS011;33659;42.672;23.354;2022-12-07T00:56:19;25.00;;;11.63;;
11691;SDS011;33659;42.672;23.354;2022-12-07T00:58:51;25.30;;;11.83;;
11691;SDS011;33659;42.672;23.354;2022-12-07T01:01:19;21.53;;;11.37;;
11691;SDS011;33659;42.672;23.354;2022-12-07T01:03:46;20.63;;;11.70;;
11691;SDS011;33659;42.672;23.354;2022-12-07T01:06:15;23.33;;;11.37;;
11691;SDS011;33659;42.672;23.354;2022-12-07T01:08:42;25.17;;;12.13;;
11691;SDS011;33659;42.672;23.354;2022-12-07T01:11:09;19.40;;;11.93;;
11691;SDS011;33659;42.672;23.354;2022-12-07T01:13:39;20.30;;;10.90;;
11691;SDS011;33659;42.672;23.354;2022-12-07T01:16:06;18.37;;;10.20;;
11691;SDS011;33659;42.672;23.354;2022-12-07T01:18:34;18.47;;;11.00;;
11691;SDS011;33659;42.672;23.354;2022-12-07T01:21:03;18.33;;;10.43;;
11691;SDS011;33659;42.672;23.354;2022-12-07T01:23:33;20.47;;;10.93;;
11691;SDS011;33659;42.672;23.354;2022-12-07T01:26:01;20.33;;;10.57;;
11691;SDS011;33659;42.672;23.354;2022-12-07T01:28:30;20.47;;;11.17;;
11691;SDS011;33659;42.672;23.354;2022-12-07T01:30:58;21.37;;;11.50;;
11691;SDS011;33659;42.672;23.354;2022-12-07T01:33:26;19.93;;;11.77;;
11691;SDS011;33659;42.672;23.354;2022-12-07T01:35:54;15.60;;;11.20;;
11691;SDS011;33659;42.672;23.354;2022-12-07T01:38:20;19.00;;;10.83;;
11691;SDS011;33659;42.672;23.354;2022-12-07T01:40:54;17.53;;;10.37;;
11691;SDS011;33659;42.672;23.354;2022-12-07T01:43:21;20.17;;;11.37;;
11691;SDS011;33659;42.672;23.354;2022-12-07T01:45:50;17.63;;;11.87;;
11691;SDS011;33659;42.672;23.354;2022-12-07T01:48:17;18.07;;;10.20;;
11691;SDS011;33659;42.672;23.354;2022-12-07T01:50:47;21.50;;;11.23;;
11691;SDS011;33659;42.672;23.354;2022-12-07T01:53:16;17.97;;;10.50;;
11691;SDS011;33659;42.672;23.354;2022-12-07T01:55:44;17.97;;;11.00;;
11691;SDS011;33659;42.672;23.354;2022-12-07T01:58:17;18.43;;;10.87;;
11691;SDS011;33659;42.672;23.354;2022-12-07T02:00:44;21.23;;;11.43;;
11691;SDS011;33659;42.672;23.354;2022-12-07T02:03:11;19.10;;;11.00;;
11691;SDS011;33659;42.672;23.354;2022-12-07T02:05:41;19.07;;;10.70;;
11691;SDS011;33659;42.672;23.354;2022-12-07T02:08:09;18.63;;;12.10;;
11691;SDS011;33659;42.672;23.354;2022-12-07T02:10:38;20.77;;;11.27;;
11691;SDS011;33659;42.672;23.354;2022-12-07T02:13:05;20.03;;;12.40;;
11691;SDS011;33659;42.672;23.354;2022-12-07T02:15:40;26.77;;;13.17;;
11691;SDS011;33659;42.672;23.354;2022-12-07T02:18:16;24.27;;;12.90;;
11691;SDS011;33659;42.672;23.354;2022-12-07T02:20:50;24.10;;;13.30;;
11691;SDS011;33659;42.672;23.354;2022-12-07T02:23:32;20.67;;;12.33;;
11691;SDS011;33659;42.672;23.354;2022-12-07T02:26:29;24.17;;;12.33;;
11691;SDS011;33659;42.672;23.354;2022-12-07T02:29:12;26.17;;;13.10;;
11691;SDS011;33659;42.672;23.354;2022-12-07T02:31:45;20.47;;;11.37;;
11691;SDS011;33659;42.672;23.354;2022-12-07T02:34:18;23.93;;;12.17;;
11691;SDS011;33659;42.672;23.354;2022-12-07T02:36:51;22.27;;;12.47;;
11691;SDS011;33659;42.672;23.354;2022-12-07T02:39:25;24.23;;;13.03;;
11691;SDS011;33659;42.672;23.354;2022-12-07T02:41:58;24.10;;;12.30;;
11691;SDS011;33659;42.672;23.354;2022-12-07T02:44:30;20.23;;;12.37;;
11691;SDS011;33659;42.672;23.354;2022-12-07T02:47:00;23.63;;;12.93;;
11691;SDS011;33659;42.672;23.354;2022-12-07T02:49:29;21.23;;;12.70;;
11691;SDS011;33659;42.672;23.354;2022-12-07T02:51:56;25.77;;;13.17;;
11691;SDS011;33659;42.672;23.354;2022-12-07T02:54:23;22.87;;;12.30;;
11691;SDS011;33659;42.672;23.354;2022-12-07T02:56:51;21.03;;;12.67;;
11691;SDS011;33659;42.672;23.354;2022-12-07T02:59:25;21.87;;;11.93;;
11691;SDS011;33659;42.672;23.354;2022-12-07T03:02:05;22.00;;;12.17;;
11691;SDS011;33659;42.672;23.354;2022-12-07T03:04:45;26.13;;;13.57;;
11691;SDS011;33659;42.672;23.354;2022-12-07T03:07:26;28.37;;;14.03;;
11691;SDS011;33659;42.672;23.354;2022-12-07T03:10:01;27.97;;;14.33;;
11691;SDS011;33659;42.672;23.354;2022-12-07T03:12:35;25.67;;;14.20;;
11691;SDS011;33659;42.672;23.354;2022-12-07T03:15:12;30.60;;;15.07;;
11691;SDS011;33659;42.672;23.354;2022-12-07T03:17:44;28.93;;;15.87;;
11691;SDS011;33659;42.672;23.354;2022-12-07T03:20:14;27.60;;;14.87;;
11691;SDS011;33659;42.672;23.354;2022-12-07T03:22:43;27.73;;;15.70;;
11691;SDS011;33659;42.672;23.354;2022-12-07T03:25:13;31.03;;;15.53;;
11691;SDS011;33659;42.672;23.354;2022-12-07T03:27:44;29.97;;;14.63;;
11691;SDS011;33659;42.672;23.354;2022-12-07T03:30:16;24.47;;;14.70;;
11691;SDS011;33659;42.672;23.354;2022-12-07T03:32:45;30.63;;;15.10;;
11691;SDS011;33659;42.672;23.354;2022-12-07T03:35:17;32.33;;;14.57;;
11691;SDS011;33659;42.672;23.354;2022-12-07T03:37:49;26.50;;;14.77;;
11691;SDS011;33659;42.672;23.354;2022-12-07T03:40:22;26.23;;;13.97;;
11691;SDS011;33659;42.672;23.354;2022-12-07T03:42:52;29.67;;;14.07;;
11691;SDS011;33659;42.672;23.354;2022-12-07T03:45:24;28.80;;;14.80;;
11691;SDS011;33659;42.672;23.354;2022-12-07T03:47:59;26.00;;;14.10;;
11691;SDS011;33659;42.672;23.354;2022-12-07T03:50:35;24.43;;;13.87;;
11691;SDS011;33659;42.672;23.354;2022-12-07T03:53:09;24.67;;;13.47;;
11691;SDS011;33659;42.672;23.354;2022-12-07T03:55:42;30.73;;;16.37;;
11691;SDS011;33659;42.672;23.354;2022-12-07T03:58:11;25.67;;;14.47;;
11691;SDS011;33659;42.672;23.354;2022-12-07T04:00:43;21.40;;;12.13;;
11691;SDS011;33659;42.672;23.354;2022-12-07T04:03:10;24.70;;;13.17;;
11691;SDS011;33659;42.672;23.354;2022-12-07T04:05:37;24.10;;;13.27;;
11691;SDS011;33659;42.672;23.354;2022-12-07T04:08:05;19.40;;;11.80;;
11691;SDS011;33659;42.672;23.354;2022-12-07T04:10:31;20.97;;;12.23;;
11691;SDS011;33659;42.672;23.354;2022-12-07T04:12:58;19.33;;;12.03;;
11691;SDS011;33659;42.672;23.354;2022-12-07T04:15:25;21.77;;;12.03;;
11691;SDS011;33659;42.672;23.354;2022-12-07T04:17:53;22.90;;;12.83;;
11691;SDS011;33659;42.672;23.354;2022-12-07T04:20:21;18.47;;;11.70;;
11691;SDS011;33659;42.672;23.354;2022-12-07T04:22:47;21.47;;;11.27;;
11691;SDS011;33659;42.672;23.354;2022-12-07T04:25:14;23.17;;;13.10;;
11691;SDS011;33659;42.672;23.354;2022-12-07T04:27:41;27.33;;;12.87;;
11691;SDS011;33659;42.672;23.354;2022-12-07T04:30:08;24.17;;;12.20;;
11691;SDS011;33659;42.672;23.354;2022-12-07T04:32:35;23.40;;;11.80;;
11691;SDS011;33659;42.672;23.354;2022-12-07T04:35:04;23.83;;;13.33;;
11691;SDS011;33659;42.672;23.354;2022-12-07T04:37:31;23.37;;;12.07;;
11691;SDS011;33659;42.672;23.354;2022-12-07T04:39:58;22.53;;;12.83;;
11691;SDS011;33659;42.672;23.354;2022-12-07T04:42:25;20.43;;;11.93;;
11691;SDS011;33659;42.672;23.354;2022-12-07T04:44:51;23.23;;;12.67;;
11691;SDS011;33659;42.672;23.354;2022-12-07T04:47:18;27.10;;;12.37;;
11691;SDS011;33659;42.672;23.354;2022-12-07T04:49:45;19.70;;;11.37;;
11691;SDS011;33659;42.672;23.354;2022-12-07T04:52:13;23.37;;;11.77;;
11691;SDS011;33659;42.672;23.354;2022-12-07T04:54:40;22.10;;;12.27;;
11691;SDS011;33659;42.672;23.354;2022-12-07T04:57:06;23.50;;;12.37;;
11691;SDS011;33659;42.672;23.354;2022-12-07T04:59:33;22.83;;;11.43;;
11691;SDS011;33659;42.672;23.354;2022-12-07T05:02:00;22.53;;;11.43;;
11691;SDS011;33659;42.672;23.354;2022-12-07T05:04:26;26.43;;;12.57;;
11691;SDS011;33659;42.672;23.354;2022-12-07T05:06:53;20.77;;;11.90;;
11691;SDS011;33659;42.672;23.354;2022-12-07T05:09:21;25.97;;;12.50;;
11691;SDS011;33659;42.672;23.354;2022-12-07T05:11:48;21.43;;;11.93;;
11691;SDS011;33659;42.672;23.354;2022-12-07T05:14:15;22.47;;;11.43;;
11691;SDS011;33659;42.672;23.354;2022-12-07T05:16:43;25.47;;;12.57;;
11691;SDS011;33659;42.672;23.354;2022-12-07T05:19:12;23.47;;;12.37;;
11691;SDS011;33659;42.672;23.354;2022-12-07T05:21:39;22.50;;;11.93;;
11691;SDS011;33659;42.672;23.354;2022-12-07T05:24:07;25.30;;;13.90;;
11691;SDS011;33659;42.672;23.354;2022-12-07T05:26:37;23.03;;;12.67;;
11691;SDS011;33659;42.672;23.354;2022-12-07T05:29:03;27.80;;;12.37;;
11691;SDS011;33659;42.672;23.354;2022-12-07T05:31:30;23.97;;;12.23;;
11691;SDS011;33659;42.672;23.354;2022-12-07T05:33:57;20.43;;;12.30;;
11691;SDS011;33659;42.672;23.354;2022-12-07T05:36:24;20.40;;;12.70;;
11691;SDS011;33659;42.672;23.354;2022-12-07T05:38:51;22.60;;;12.07;;
11691;SDS011;33659;42.672;23.354;2022-12-07T05:41:18;26.57;;;13.53;;
11691;SDS011;33659;42.672;23.354;2022-12-07T05:44:03;20.60;;;11.20;;
11691;SDS011;33659;42.672;23.354;2022-12-07T05:46:30;22.37;;;13.37;;
11691;SDS011;33659;42.672;23.354;2022-12-07T05:48:57;24.43;;;12.60;;
11691;SDS011;33659;42.672;23.354;2022-12-07T05:51:24;23.90;;;13.20;;
11691;SDS011;33659;42.672;23.354;2022-12-07T05:53:50;24.30;;;13.23;;
11691;SDS011;33659;42.672;23.354;2022-12-07T05:56:17;23.17;;;10.73;;
11691;SDS011;33659;42.672;23.354;2022-12-07T05:58:44;22.13;;;12.33;;
11691;SDS011;33659;42.672;23.354;2022-12-07T06:01:29;23.43;;;12.23;;
11691;SDS011;33659;42.672;23.354;2022-12-07T06:03:56;20.57;;;12.80;;
11691;SDS011;33659;42.672;23.354;2022-12-07T06:06:23;25.23;;;12.83;;
11691;SDS011;33659;42.672;23.354;2022-12-07T06:08:50;28.93;;;14.07;;
11691;SDS011;33659;42.672;23.354;2022-12-07T06:11:16;27.33;;;13.17;;
11691;SDS011;33659;42.672;23.354;2022-12-07T06:14:00;21.37;;;13.00;;
11691;SDS011;33659;42.672;23.354;2022-12-07T06:16:27;32.50;;;13.40;;
11691;SDS011;33659;42.672;23.354;2022-12-07T06:18:55;27.33;;;13.50;;
11691;SDS011;33659;42.672;23.354;2022-12-07T06:21:22;23.53;;;13.47;;
11691;SDS011;33659;42.672;23.354;2022-12-07T06:23:50;25.37;;;12.80;;
11691;SDS011;33659;42.672;23.354;2022-12-07T06:26:17;22.53;;;13.30;;
11691;SDS011;33659;42.672;23.354;2022-12-07T06:28:44;29.07;;;13.23;;
11691;SDS011;33659;42.672;23.354;2022-12-07T06:31:10;29.53;;;13.93;;
11691;SDS011;33659;42.672;23.354;2022-12-07T06:33:37;21.90;;;12.80;;
11691;SDS011;33659;42.672;23.354;2022-12-07T06:36:05;25.57;;;13.37;;
11691;SDS011;33659;42.672;23.354;2022-12-07T06:38:32;23.53;;;12.20;;
11691;SDS011;33659;42.672;23.354;2022-12-07T06:40:59;26.43;;;14.57;;
11691;SDS011;33659;42.672;23.354;2022-12-07T06:43:26;25.17;;;12.33;;
11691;SDS011;33659;42.672;23.354;2022-12-07T06:45:53;22.63;;;13.00;;
11691;SDS011;33659;42.672;23.354;2022-12-07T06:48:19;21.70;;;11.63;;
11691;SDS011;33659;42.672;23.354;2022-12-07T06:50:46;25.73;;;13.57;;
11691;SDS011;33659;42.672;23.354;2022-12-07T06:53:15;27.50;;;14.03;;
11691;SDS011;33659;42.672;23.354;2022-12-07T06:55:41;23.90;;;12.83;;
11691;SDS011;33659;42.672;23.354;2022-12-07T06:58:08;24.07;;;12.90;;
11691;SDS011;33659;42.672;23.354;2022-12-07T07:00:35;27.37;;;13.60;;
11691;SDS011;33659;42.672;23.354;2022-12-07T07:03:02;19.07;;;11.93;;
11691;SDS011;33659;42.672;23.354;2022-12-07T07:05:29;27.67;;;12.70;;
11691;SDS011;33659;42.672;23.354;2022-12-07T07:07:55;22.00;;;12.97;;
11691;SDS011;33659;42.672;23.354;2022-12-07T07:10:23;27.73;;;13.47;;
11691;SDS011;33659;42.672;23.354;2022-12-07T07:12:50;26.53;;;14.27;;
11691;SDS011;33659;42.672;23.354;2022-12-07T07:15:16;26.33;;;14.20;;
11691;SDS011;33659;42.672;23.354;2022-12-07T07:17:43;31.67;;;12.97;;
11691;SDS011;33659;42.672;23.354;2022-12-07T07:20:10;28.17;;;13.40;;
11691;SDS011;33659;42.672;23.354;2022-12-07T07:22:38;28.53;;;12.27;;
11691;SDS011;33659;42.672;23.354;2022-12-07T07:25:04;26.80;;;13.00;;
11691;SDS011;33659;42.672;23.354;2022-12-07T07:27:33;30.70;;;13.60;;
11691;SDS011;33659;42.672;23.354;2022-12-07T07:29:59;32.87;;;13.53;;
11691;SDS011;33659;42.672;23.354;2022-12-07T07:32:26;27.33;;;12.33;;
11691;SDS011;33659;42.672;23.354;2022-12-07T07:34:53;30.77;;;13.57;;
11691;SDS011;33659;42.672;23.354;2022-12-07T07:37:19;29.53;;;13.23;;
11691;SDS011;33659;42.672;23.354;2022-12-07T07:39:46;22.13;;;13.00;;
11691;SDS011;33659;42.672;23.354;2022-12-07T07:42:13;23.43;;;12.23;;
11691;SDS011;33659;42.672;23.354;2022-12-07T07:44:41;24.90;;;12.83;;
11691;SDS011;33659;42.672;23.354;2022-12-07T07:47:07;23.80;;;12.47;;
11691;SDS011;33659;42.672;23.354;2022-12-07T07:49:34;23.37;;;13.50;;
11691;SDS011;33659;42.672;23.354;2022-12-07T07:52:01;32.20;;;14.10;;
11691;SDS011;33659;42.672;23.354;2022-12-07T07:54:28;25.73;;;13.73;;
11691;SDS011;33659;42.672;23.354;2022-12-07T07:56:54;25.10;;;13.20;;
11691;SDS011;33659;42.672;23.354;2022-12-07T07:59:21;32.87;;;14.50;;
11691;SDS011;33659;42.672;23.354;2022-12-07T08:01:49;25.03;;;13.27;;
11691;SDS011;33659;42.672;23.354;2022-12-07T08:04:16;20.63;;;12.27;;
11691;SDS011;33659;42.672;23.354;2022-12-07T08:06:43;30.10;;;13.33;;
11691;SDS011;33659;42.672;23.354;2022-12-07T08:09:09;24.50;;;14.17;;
11691;SDS011;33659;42.672;23.354;2022-12-07T08:11:36;24.33;;;14.20;;
11691;SDS011;33659;42.672;23.354;2022-12-07T08:14:03;21.43;;;14.00;;
11691;SDS011;33659;42.672;23.354;2022-12-07T08:16:30;24.43;;;14.27;;
11691;SDS011;33659;42.672;23.354;2022-12-07T08:18:58;24.23;;;13.33;;
11691;SDS011;33659;42.672;23.354;2022-12-07T08:21:24;28.33;;;14.73;;
11691;SDS011;33659;42.672;23.354;2022-12-07T08:23:51;28.13;;;14.27;;
11691;SDS011;33659;42.672;23.354;2022-12-07T08:26:18;35.00;;;14.57;;
11691;SDS011;33659;42.672;23.354;2022-12-07T08:28:44;24.73;;;13.63;;
11691;SDS011;33659;42.672;23.354;2022-12-07T08:31:12;27.10;;;15.80;;
11691;SDS011;33659;42.672;23.354;2022-12-07T08:33:40;24.47;;;13.97;;
11691;SDS011;33659;42.672;23.354;2022-12-07T08:36:13;29.40;;;15.07;;
11691;SDS011;33659;42.672;23.354;2022-12-07T08:38:40;24.53;;;14.57;;
11691;SDS011;33659;42.672;23.354;2022-12-07T08:41:07;24.70;;;13.90;;
11691;SDS011;33659;42.672;23.354;2022-12-07T08:43:34;28.30;;;14.37;;
11691;SDS011;33659;42.672;23.354;2022-12-07T08:46:03;24.83;;;15.33;;
11691;SDS011;33659;42.672;23.354;2022-12-07T08:48:35;24.07;;;14.53;;
11691;SDS011;33659;42.672;23.354;2022-12-07T08:51:05;28.00;;;14.67;;
11691;SDS011;33659;42.672;23.354;2022-12-07T08:53:33;31.53;;;16.73;;
11691;SDS011;33659;42.672;23.354;2022-12-07T08:56:02;26.27;;;14.53;;
11691;SDS011;33659;42.672;23.354;2022-12-07T08:58:29;33.87;;;15.57;;
11691;SDS011;33659;42.672;23.354;2022-12-07T09:00:56;30.23;;;16.07;;
11691;SDS011;33659;42.672;23.354;2022-12-07T09:03:23;32.53;;;15.13;;
11691;SDS011;33659;42.672;23.354;2022-12-07T09:05:50;26.27;;;16.07;;
11691;SDS011;33659;42.672;23.354;2022-12-07T09:08:16;25.47;;;15.50;;
11691;SDS011;33659;42.672;23.354;2022-12-07T09:10:45;26.07;;;15.43;;
11691;SDS011;33659;42.672;23.354;2022-12-07T09:13:12;31.17;;;16.30;;
11691;SDS011;33659;42.672;23.354;2022-12-07T09:15:39;28.30;;;15.60;;
11691;SDS011;33659;42.672;23.354;2022-12-07T09:18:06;27.73;;;15.60;;
11691;SDS011;33659;42.672;23.354;2022-12-07T09:20:33;28.43;;;15.13;;
11691;SDS011;33659;42.672;23.354;2022-12-07T09:23:00;31.33;;;16.80;;
11691;SDS011;33659;42.672;23.354;2022-12-07T09:25:26;29.97;;;16.43;;
11691;SDS011;33659;42.672;23.354;2022-12-07T09:27:58;35.50;;;18.00;;
11691;SDS011;33659;42.672;23.354;2022-12-07T09:30:25;28.20;;;18.20;;
11691;SDS011;33659;42.672;23.354;2022-12-07T09:32:52;33.27;;;16.83;;
11691;SDS011;33659;42.672;23.354;2022-12-07T09:35:19;36.33;;;17.20;;
11691;SDS011;33659;42.672;23.354;2022-12-07T09:37:46;31.93;;;16.43;;
11691;SDS011;33659;42.672;23.354;2022-12-07T09:40:13;33.17;;;18.83;;
11691;SDS011;33659;42.672;23.354;2022-12-07T09:42:41;33.03;;;19.00;;
11691;SDS011;33659;42.672;23.354;2022-12-07T09:45:13;31.90;;;17.93;;
11691;SDS011;33659;42.672;23.354;2022-12-07T09:47:42;39.57;;;18.53;;
11691;SDS011;33659;42.672;23.354;2022-12-07T09:50:12;30.93;;;17.37;;
11691;SDS011;33659;42.672;23.354;2022-12-07T09:52:41;37.97;;;17.87;;
11691;SDS011;33659;42.672;23.354;2022-12-07T09:55:11;32.87;;;17.53;;
11691;SDS011;33659;42.672;23.354;2022-12-07T09:57:39;35.40;;;17.87;;
11691;SDS011;33659;42.672;23.354;2022-12-07T10:00:10;32.87;;;19.20;;
11691;SDS011;33659;42.672;23.354;2022-12-07T10:02:41;41.07;;;18.17;;
11691;SDS011;33659;42.672;23.354;2022-12-07T10:05:11;32.93;;;18.57;;
11691;SDS011;33659;42.672;23.354;2022-12-07T10:07:40;33.63;;;17.17;;
11691;SDS011;33659;42.672;23.354;2022-12-07T10:10:12;34.93;;;18.43;;
11691;SDS011;33659;42.672;23.354;2022-12-07T10:12:54;36.80;;;19.63;;
11691;SDS011;33659;42.672;23.354;2022-12-07T10:18:20;35.67;;;17.27;;
11691;SDS011;33659;42.672;23.354;2022-12-07T10:20:59;33.47;;;18.47;;
11691;SDS011;33659;42.672;23.354;2022-12-07T10:23:38;34.40;;;18.10;;
11691;SDS011;33659;42.672;23.354;2022-12-07T10:29:13;34.80;;;17.77;;
11691;SDS011;33659;42.672;23.354;2022-12-07T10:31:44;32.93;;;17.13;;
11691;SDS011;33659;42.672;23.354;2022-12-07T10:34:15;27.30;;;16.43;;
11691;SDS011;33659;42.672;23.354;2022-12-07T10:36:49;34.83;;;16.83;;
11691;SDS011;33659;42.672;23.354;2022-12-07T10:39:16;33.47;;;14.93;;
11691;SDS011;33659;42.672;23.354;2022-12-07T10:41:54;32.67;;;15.17;;
11691;SDS011;33659;42.672;23.354;2022-12-07T10:44:22;28.83;;;15.03;;
11691;SDS011;33659;42.672;23.354;2022-12-07T10:47:01;26.33;;;15.27;;
11691;SDS011;33659;42.672;23.354;2022-12-07T10:49:44;34.27;;;17.50;;
11691;SDS011;33659;42.672;23.354;2022-12-07T10:52:38;35.30;;;16.93;;
11691;SDS011;33659;42.672;23.354;2022-12-07T10:55:23;29.30;;;14.43;;
11691;SDS011;33659;42.672;23.354;2022-12-07T10:58:03;26.67;;;15.00;;
11691;SDS011;33659;42.672;23.354;2022-12-07T11:00:43;24.67;;;14.40;;
11691;SDS011;33659;42.672;23.354;2022-12-07T11:03:23;37.60;;;14.47;;
11691;SDS011;33659;42.672;23.354;2022-12-07T11:06:05;28.63;;;14.70;;
11691;SDS011;33659;42.672;23.354;2022-12-07T11:08:46;24.70;;;13.50;;
11691;SDS011;33659;42.672;23.354;2022-12-07T11:11:25;28.60;;;13.30;;
11691;SDS011;33659;42.672;23.354;2022-12-07T11:14:01;25.57;;;12.77;;
11691;SDS011;33659;42.672;23.354;2022-12-07T11:16:42;24.80;;;13.03;;
11691;SDS011;33659;42.672;23.354;2022-12-07T11:19:21;17.57;;;11.67;;
11691;SDS011;33659;42.672;23.354;2022-12-07T11:22:16;22.43;;;12.80;;
11691;SDS011;33659;42.672;23.354;2022-12-07T11:24:51;20.80;;;13.20;;
11691;SDS011;33659;42.672;23.354;2022-12-07T11:27:30;22.93;;;13.93;;
11691;SDS011;33659;42.672;23.354;2022-12-07T11:30:11;23.20;;;12.27;;
11691;SDS011;33659;42.672;23.354;2022-12-07T11:32:44;20.63;;;13.00;;
11691;SDS011;33659;42.672;23.354;2022-12-07T11:35:21;19.03;;;13.10;;
11691;SDS011;33659;42.672;23.354;2022-12-07T11:37:56;18.27;;;12.53;;
11691;SDS011;33659;42.672;23.354;2022-12-07T11:40:27;19.83;;;11.90;;
11691;SDS011;33659;42.672;23.354;2022-12-07T11:43:00;18.87;;;11.67;;
11691;SDS011;33659;42.672;23.354;2022-12-07T11:45:31;27.17;;;13.17;;
11691;SDS011;33659;42.672;23.354;2022-12-07T11:48:01;28.63;;;13.43;;
11691;SDS011;33659;42.672;23.354;2022-12-07T11:50:33;22.30;;;12.10;;
11691;SDS011;33659;42.672;23.354;2022-12-07T11:53:05;23.00;;;12.03;;
11691;SDS011;33659;42.672;23.354;2022-12-07T11:55:41;24.30;;;11.93;;
11691;SDS011;33659;42.672;23.354;2022-12-07T11:58:26;17.33;;;10.17;;
11691;SDS011;33659;42.672;23.354;2022-12-07T12:01:08;22.07;;;11.37;;
11691;SDS011;33659;42.672;23.354;2022-12-07T12:03:42;17.70;;;10.10;;
11691;SDS011;33659;42.672;23.354;2022-12-07T12:06:12;18.97;;;9.97;;
11691;SDS011;33659;42.672;23.354;2022-12-07T12:08:40;18.70;;;9.23;;
11691;SDS011;33659;42.672;23.354;2022-12-07T12:11:16;21.27;;;10.13;;
11691;SDS011;33659;42.672;23.354;2022-12-07T12:13:55;16.27;;;9.43;;
11691;SDS011;33659;42.672;23.354;2022-12-07T12:19:33;15.73;;;8.27;;
11691;SDS011;33659;42.672;23.354;2022-12-07T12:22:09;17.63;;;8.30;;
11691;SDS011;33659;42.672;23.354;2022-12-07T12:24:41;18.20;;;8.80;;
11691;SDS011;33659;42.672;23.354;2022-12-07T12:27:15;15.00;;;7.50;;
11691;SDS011;33659;42.672;23.354;2022-12-07T12:29:51;12.00;;;6.70;;
11691;SDS011;33659;42.672;23.354;2022-12-07T12:32:20;13.07;;;8.02;;
11691;SDS011;33659;42.672;23.354;2022-12-07T12:35:00;12.55;;;8.18;;
11691;SDS011;33659;42.672;23.354;2022-12-07T12:37:47;12.70;;;7.65;;
11691;SDS011;33659;42.672;23.354;2022-12-07T12:46:36;13.63;;;7.70;;
11691;SDS011;33659;42.672;23.354;2022-12-07T12:49:14;17.52;;;8.75;;
11691;SDS011;33659;42.672;23.354;2022-12-07T12:51:59;13.32;;;7.57;;
11691;SDS011;33659;42.672;23.354;2022-12-07T12:54:30;14.70;;;7.55;;
11691;SDS011;33659;42.672;23.354;2022-12-07T12:56:59;11.48;;;7.63;;
11691;SDS011;33659;42.672;23.354;2022-12-07T12:59:31;10.93;;;7.05;;
11691;SDS011;33659;42.672;23.354;2022-12-07T13:02:14;10.80;;;7.70;;
11691;SDS011;33659;42.672;23.354;2022-12-07T13:04:50;17.73;;;7.03;;
11691;SDS011;33659;42.672;23.354;2022-12-07T13:10:22;9.88;;;6.90;;
11691;SDS011;33659;42.672;23.354;2022-12-07T13:12:56;11.93;;;7.50;;
11691;SDS011;33659;42.672;23.354;2022-12-07T13:15:36;12.60;;;7.80;;
11691;SDS011;33659;42.672;23.354;2022-12-07T13:18:21;13.27;;;7.68;;
11691;SDS011;33659;42.672;23.354;2022-12-07T13:20:52;13.38;;;7.03;;
11691;SDS011;33659;42.672;23.354;2022-12-07T13:23:29;13.52;;;7.55;;
11691;SDS011;33659;42.672;23.354;2022-12-07T13:28:43;10.85;;;7.18;;
11691;SDS011;33659;42.672;23.354;2022-12-07T13:31:18;13.25;;;7.57;;
11691;SDS011;33659;42.672;23.354;2022-12-07T13:33:50;16.60;;;8.45;;
11691;SDS011;33659;42.672;23.354;2022-12-07T13:36:21;14.93;;;7.82;;
11691;SDS011;33659;42.672;23.354;2022-12-07T13:38:53;14.05;;;7.75;;
11691;SDS011;33659;42.672;23.354;2022-12-07T13:41:23;12.82;;;7.70;;
11691;SDS011;33659;42.672;23.354;2022-12-07T13:44:02;13.87;;;8.43;;
11691;SDS011;33659;42.672;23.354;2022-12-07T13:46:42;15.60;;;8.70;;
11691;SDS011;33659;42.672;23.354;2022-12-07T13:49:20;14.83;;;8.67;;
11691;SDS011;33659;42.672;23.354;2022-12-07T13:51:49;17.67;;;9.40;;
11691;SDS011;33659;42.672;23.354;2022-12-07T13:54:17;17.97;;;8.43;;
11691;SDS011;33659;42.672;23.354;2022-12-07T13:56:47;13.67;;;8.93;;
11691;SDS011;33659;42.672;23.354;2022-12-07T13:59:16;16.60;;;8.97;;
11691;SDS011;33659;42.672;23.354;2022-12-07T14:01:45;16.60;;;9.00;;
11691;SDS011;33659;42.672;23.354;2022-12-07T14:04:29;14.33;;;8.70;;
11691;SDS011;33659;42.672;23.354;2022-12-07T14:06:59;18.43;;;8.60;;
11691;SDS011;33659;42.672;23.354;2022-12-07T14:09:28;14.90;;;8.50;;
11691;SDS011;33659;42.672;23.354;2022-12-07T14:11:57;15.20;;;8.80;;
11691;SDS011;33659;42.672;23.354;2022-12-07T14:14:25;17.73;;;8.67;;
11691;SDS011;33659;42.672;23.354;2022-12-07T14:16:56;17.10;;;9.17;;
11691;SDS011;33659;42.672;23.354;2022-12-07T14:19:44;14.17;;;8.77;;
11691;SDS011;33659;42.672;23.354;2022-12-07T14:22:22;16.10;;;8.63;;
11691;SDS011;33659;42.672;23.354;2022-12-07T14:24:50;13.57;;;8.37;;
11691;SDS011;33659;42.672;23.354;2022-12-07T14:27:29;17.47;;;8.87;;
11691;SDS011;33659;42.672;23.354;2022-12-07T14:29:59;16.50;;;9.20;;
11691;SDS011;33659;42.672;23.354;2022-12-07T14:32:26;12.67;;;8.80;;
11691;SDS011;33659;42.672;23.354;2022-12-07T14:34:55;14.67;;;8.50;;
11691;SDS011;33659;42.672;23.354;2022-12-07T14:37:27;16.57;;;8.17;;
11691;SDS011;33659;42.672;23.354;2022-12-07T14:39:54;14.60;;;8.17;;
11691;SDS011;33659;42.672;23.354;2022-12-07T14:42:21;18.50;;;9.83;;
11691;SDS011;33659;42.672;23.354;2022-12-07T14:44:53;16.97;;;9.70;;
11691;SDS011;33659;42.672;23.354;2022-12-07T14:47:20;17.53;;;9.27;;
11691;SDS011;33659;42.672;23.354;2022-12-07T14:49:46;15.60;;;9.13;;
11691;SDS011;33659;42.672;23.354;2022-12-07T14:52:14;19.10;;;9.70;;